sensor_id;sensor_type;location;lat;lon;timestamp;P1;durP1;ratioP1;P2;durP2;ratioP2
73550;SDS011;61816;53.582;10.096;2022-07-22T00:02:12;44.50;;;33.35;;
73550;SDS011;61816;53.582;10.096;2022-07-22T00:04:37;49.05;;;34.95;;
73550;SDS011;61816;53.582;10.096;2022-07-22T00:07:03;46.85;;;33.38;;
73550;SDS011;61816;53.582;10.096;2022-07-22T00:09:28;46.60;;;33.47;;
73550;SDS011;61816;53.582;10.096;2022-07-22T00:11:54;48.88;;;34.90;;
73550;SDS011;61816;53.582;10.096;2022-07-22T00:14:20;47.63;;;33.08;;
73550;SDS011;61816;53.582;10.096;2022-07-22T00:16:45;43.42;;;32.58;;
73550;SDS011;61816;53.582;10.096;2022-07-22T00:19:11;46.28;;;31.85;;
73550;SDS011;61816;53.582;10.096;2022-07-22T00:21:36;46.40;;;31.40;;
73550;SDS011;61816;53.582;10.096;2022-07-22T00:24:02;38.72;;;29.98;;
73550;SDS011;61816;53.582;10.096;2022-07-22T00:26:28;42.20;;;32.47;;
73550;SDS011;61816;53.582;10.096;2022-07-22T00:28:53;37.67;;;28.75;;
73550;SDS011;61816;53.582;10.096;2022-07-22T00:31:19;41.05;;;30.55;;
73550;SDS011;61816;53.582;10.096;2022-07-22T00:33:44;53.67;;;32.95;;
73550;SDS011;61816;53.582;10.096;2022-07-22T00:36:10;47.03;;;31.50;;
73550;SDS011;61816;53.582;10.096;2022-07-22T00:38:35;49.00;;;31.42;;
73550;SDS011;61816;53.582;10.096;2022-07-22T00:41:00;54.95;;;31.73;;
73550;SDS011;61816;53.582;10.096;2022-07-22T00:43:26;56.97;;;33.05;;
73550;SDS011;61816;53.582;10.096;2022-07-22T00:45:52;63.08;;;35.10;;
73550;SDS011;61816;53.582;10.096;2022-07-22T00:48:18;49.97;;;30.13;;
73550;SDS011;61816;53.582;10.096;2022-07-22T00:50:43;64.20;;;36.60;;
73550;SDS011;61816;53.582;10.096;2022-07-22T00:53:09;54.28;;;32.42;;
73550;SDS011;61816;53.582;10.096;2022-07-22T00:55:35;54.25;;;32.42;;
73550;SDS011;61816;53.582;10.096;2022-07-22T00:58:02;56.60;;;30.13;;
73550;SDS011;61816;53.582;10.096;2022-07-22T01:00:28;52.13;;;28.88;;
73550;SDS011;61816;53.582;10.096;2022-07-22T01:02:54;44.17;;;26.92;;
73550;SDS011;61816;53.582;10.096;2022-07-22T01:05:19;42.47;;;25.50;;
73550;SDS011;61816;53.582;10.096;2022-07-22T01:07:45;42.85;;;26.13;;
73550;SDS011;61816;53.582;10.096;2022-07-22T01:10:10;31.17;;;20.90;;
73550;SDS011;61816;53.582;10.096;2022-07-22T01:12:36;28.55;;;18.48;;
73550;SDS011;61816;53.582;10.096;2022-07-22T01:15:02;22.30;;;14.38;;
73550;SDS011;61816;53.582;10.096;2022-07-22T01:17:27;21.92;;;11.50;;
73550;SDS011;61816;53.582;10.096;2022-07-22T01:19:53;17.17;;;9.60;;
73550;SDS011;61816;53.582;10.096;2022-07-22T01:22:18;17.17;;;9.00;;
73550;SDS011;61816;53.582;10.096;2022-07-22T01:24:44;16.65;;;8.48;;
73550;SDS011;61816;53.582;10.096;2022-07-22T01:27:09;8.35;;;6.18;;
73550;SDS011;61816;53.582;10.096;2022-07-22T01:29:34;11.82;;;5.63;;
73550;SDS011;61816;53.582;10.096;2022-07-22T01:32:00;11.93;;;6.55;;
73550;SDS011;61816;53.582;10.096;2022-07-22T01:34:25;11.80;;;7.82;;
73550;SDS011;61816;53.582;10.096;2022-07-22T01:36:51;15.52;;;7.72;;
73550;SDS011;61816;53.582;10.096;2022-07-22T01:39:16;7.47;;;4.45;;
73550;SDS011;61816;53.582;10.096;2022-07-22T01:41:42;13.00;;;5.20;;
73550;SDS011;61816;53.582;10.096;2022-07-22T01:44:08;11.80;;;4.90;;
73550;SDS011;61816;53.582;10.096;2022-07-22T01:46:33;11.65;;;4.63;;
73550;SDS011;61816;53.582;10.096;2022-07-22T01:48:59;8.55;;;4.65;;
73550;SDS011;61816;53.582;10.096;2022-07-22T01:51:24;13.07;;;5.30;;
73550;SDS011;61816;53.582;10.096;2022-07-22T01:53:50;15.38;;;5.72;;
73550;SDS011;61816;53.582;10.096;2022-07-22T01:56:15;18.52;;;5.47;;
73550;SDS011;61816;53.582;10.096;2022-07-22T01:58:40;17.40;;;5.30;;
73550;SDS011;61816;53.582;10.096;2022-07-22T02:01:06;16.88;;;5.30;;
73550;SDS011;61816;53.582;10.096;2022-07-22T02:03:32;11.82;;;5.35;;
73550;SDS011;61816;53.582;10.096;2022-07-22T02:05:58;12.50;;;5.68;;
73550;SDS011;61816;53.582;10.096;2022-07-22T02:08:23;20.40;;;7.80;;
73550;SDS011;61816;53.582;10.096;2022-07-22T02:10:49;18.50;;;9.88;;
73550;SDS011;61816;53.582;10.096;2022-07-22T02:13:14;33.17;;;14.57;;
73550;SDS011;61816;53.582;10.096;2022-07-22T02:15:40;44.88;;;17.67;;
73550;SDS011;61816;53.582;10.096;2022-07-22T02:18:09;37.35;;;16.75;;
73550;SDS011;61816;53.582;10.096;2022-07-22T02:20:36;40.92;;;16.63;;
73550;SDS011;61816;53.582;10.096;2022-07-22T02:23:01;42.10;;;15.68;;
73550;SDS011;61816;53.582;10.096;2022-07-22T02:25:26;32.55;;;13.30;;
73550;SDS011;61816;53.582;10.096;2022-07-22T02:27:52;37.83;;;13.05;;
73550;SDS011;61816;53.582;10.096;2022-07-22T02:30:17;39.60;;;12.45;;
73550;SDS011;61816;53.582;10.096;2022-07-22T02:32:42;29.17;;;10.63;;
73550;SDS011;61816;53.582;10.096;2022-07-22T02:35:08;27.55;;;10.45;;
73550;SDS011;61816;53.582;10.096;2022-07-22T02:37:33;28.52;;;9.57;;
73550;SDS011;61816;53.582;10.096;2022-07-22T02:39:59;28.05;;;9.48;;
73550;SDS011;61816;53.582;10.096;2022-07-22T02:42:25;33.35;;;9.73;;
73550;SDS011;61816;53.582;10.096;2022-07-22T02:44:51;25.48;;;8.57;;
73550;SDS011;61816;53.582;10.096;2022-07-22T02:47:16;26.05;;;7.97;;
73550;SDS011;61816;53.582;10.096;2022-07-22T02:49:41;27.27;;;7.40;;
73550;SDS011;61816;53.582;10.096;2022-07-22T02:52:07;21.55;;;7.72;;
73550;SDS011;61816;53.582;10.096;2022-07-22T02:54:32;29.80;;;7.90;;
73550;SDS011;61816;53.582;10.096;2022-07-22T02:56:58;23.73;;;7.60;;
73550;SDS011;61816;53.582;10.096;2022-07-22T02:59:23;35.30;;;7.55;;
73550;SDS011;61816;53.582;10.096;2022-07-22T03:01:48;37.90;;;7.40;;
73550;SDS011;61816;53.582;10.096;2022-07-22T03:04:14;22.92;;;6.20;;
73550;SDS011;61816;53.582;10.096;2022-07-22T03:06:39;29.58;;;6.78;;
73550;SDS011;61816;53.582;10.096;2022-07-22T03:09:04;25.05;;;6.40;;
73550;SDS011;61816;53.582;10.096;2022-07-22T03:11:30;28.75;;;6.43;;
73550;SDS011;61816;53.582;10.096;2022-07-22T03:13:55;22.15;;;6.10;;
73550;SDS011;61816;53.582;10.096;2022-07-22T03:16:20;31.70;;;5.43;;
73550;SDS011;61816;53.582;10.096;2022-07-22T03:18:46;24.38;;;5.10;;
73550;SDS011;61816;53.582;10.096;2022-07-22T03:21:11;23.55;;;5.63;;
73550;SDS011;61816;53.582;10.096;2022-07-22T03:23:37;53.70;;;6.88;;
73550;SDS011;61816;53.582;10.096;2022-07-22T03:26:02;22.88;;;4.97;;
73550;SDS011;61816;53.582;10.096;2022-07-22T03:28:28;25.25;;;4.72;;
73550;SDS011;61816;53.582;10.096;2022-07-22T03:30:53;34.22;;;5.88;;
73550;SDS011;61816;53.582;10.096;2022-07-22T03:33:19;30.80;;;5.78;;
73550;SDS011;61816;53.582;10.096;2022-07-22T03:35:44;17.67;;;4.95;;
73550;SDS011;61816;53.582;10.096;2022-07-22T03:38:09;23.58;;;5.32;;
73550;SDS011;61816;53.582;10.096;2022-07-22T03:40:35;22.52;;;5.18;;
73550;SDS011;61816;53.582;10.096;2022-07-22T03:43:00;28.75;;;5.43;;
73550;SDS011;61816;53.582;10.096;2022-07-22T03:45:26;25.90;;;5.07;;
73550;SDS011;61816;53.582;10.096;2022-07-22T03:47:51;20.83;;;4.15;;
73550;SDS011;61816;53.582;10.096;2022-07-22T03:50:19;17.67;;;4.45;;
73550;SDS011;61816;53.582;10.096;2022-07-22T03:52:44;23.33;;;4.30;;
73550;SDS011;61816;53.582;10.096;2022-07-22T03:55:10;21.90;;;4.50;;
73550;SDS011;61816;53.582;10.096;2022-07-22T03:57:35;28.52;;;5.00;;
73550;SDS011;61816;53.582;10.096;2022-07-22T04:00:00;22.10;;;4.10;;
73550;SDS011;61816;53.582;10.096;2022-07-22T04:02:26;18.65;;;4.18;;
73550;SDS011;61816;53.582;10.096;2022-07-22T04:04:51;18.77;;;3.92;;
73550;SDS011;61816;53.582;10.096;2022-07-22T04:07:16;15.55;;;4.05;;
73550;SDS011;61816;53.582;10.096;2022-07-22T04:09:42;16.58;;;4.15;;
73550;SDS011;61816;53.582;10.096;2022-07-22T04:12:07;22.02;;;4.03;;
73550;SDS011;61816;53.582;10.096;2022-07-22T04:14:33;17.17;;;3.65;;
73550;SDS011;61816;53.582;10.096;2022-07-22T04:16:58;22.58;;;4.13;;
73550;SDS011;61816;53.582;10.096;2022-07-22T04:19:24;15.75;;;4.20;;
73550;SDS011;61816;53.582;10.096;2022-07-22T04:21:49;31.38;;;4.45;;
73550;SDS011;61816;53.582;10.096;2022-07-22T04:24:14;15.00;;;3.75;;
73550;SDS011;61816;53.582;10.096;2022-07-22T04:26:40;14.80;;;4.05;;
73550;SDS011;61816;53.582;10.096;2022-07-22T04:29:05;19.80;;;4.78;;
73550;SDS011;61816;53.582;10.096;2022-07-22T04:31:31;16.38;;;3.78;;
73550;SDS011;61816;53.582;10.096;2022-07-22T04:33:57;29.48;;;4.45;;
73550;SDS011;61816;53.582;10.096;2022-07-22T04:36:23;10.82;;;4.55;;
73550;SDS011;61816;53.582;10.096;2022-07-22T04:38:48;15.48;;;4.60;;
73550;SDS011;61816;53.582;10.096;2022-07-22T04:41:14;21.15;;;5.05;;
73550;SDS011;61816;53.582;10.096;2022-07-22T04:43:40;27.52;;;5.15;;
73550;SDS011;61816;53.582;10.096;2022-07-22T04:46:06;21.05;;;4.57;;
73550;SDS011;61816;53.582;10.096;2022-07-22T04:48:31;30.50;;;6.28;;
73550;SDS011;61816;53.582;10.096;2022-07-22T04:51:00;24.50;;;5.15;;
73550;SDS011;61816;53.582;10.096;2022-07-22T04:53:26;37.88;;;8.15;;
73550;SDS011;61816;53.582;10.096;2022-07-22T04:55:52;22.77;;;3.97;;
73550;SDS011;61816;53.582;10.096;2022-07-22T04:58:17;17.88;;;4.82;;
73550;SDS011;61816;53.582;10.096;2022-07-22T05:00:43;26.27;;;5.78;;
73550;SDS011;61816;53.582;10.096;2022-07-22T05:03:08;13.77;;;4.32;;
73550;SDS011;61816;53.582;10.096;2022-07-22T05:05:33;18.08;;;4.63;;
73550;SDS011;61816;53.582;10.096;2022-07-22T05:07:59;16.67;;;4.97;;
73550;SDS011;61816;53.582;10.096;2022-07-22T05:10:24;12.73;;;4.63;;
73550;SDS011;61816;53.582;10.096;2022-07-22T05:12:50;17.80;;;3.83;;
73550;SDS011;61816;53.582;10.096;2022-07-22T05:15:16;14.63;;;5.18;;
73550;SDS011;61816;53.582;10.096;2022-07-22T05:17:41;23.88;;;5.43;;
73550;SDS011;61816;53.582;10.096;2022-07-22T05:20:07;19.27;;;4.88;;
73550;SDS011;61816;53.582;10.096;2022-07-22T05:22:32;14.98;;;5.13;;
73550;SDS011;61816;53.582;10.096;2022-07-22T05:24:57;22.50;;;6.00;;
73550;SDS011;61816;53.582;10.096;2022-07-22T05:27:23;21.38;;;5.50;;
73550;SDS011;61816;53.582;10.096;2022-07-22T05:29:48;17.85;;;5.90;;
73550;SDS011;61816;53.582;10.096;2022-07-22T05:32:14;13.50;;;5.50;;
73550;SDS011;61816;53.582;10.096;2022-07-22T05:34:40;25.17;;;6.63;;
73550;SDS011;61816;53.582;10.096;2022-07-22T05:37:05;18.67;;;6.78;;
73550;SDS011;61816;53.582;10.096;2022-07-22T05:39:30;17.98;;;4.80;;
73550;SDS011;61816;53.582;10.096;2022-07-22T05:41:56;31.33;;;6.15;;
73550;SDS011;61816;53.582;10.096;2022-07-22T05:44:21;36.05;;;6.57;;
73550;SDS011;61816;53.582;10.096;2022-07-22T05:46:47;30.23;;;6.15;;
73550;SDS011;61816;53.582;10.096;2022-07-22T05:49:12;40.30;;;5.95;;
73550;SDS011;61816;53.582;10.096;2022-07-22T05:51:37;26.50;;;6.00;;
73550;SDS011;61816;53.582;10.096;2022-07-22T05:54:03;32.20;;;7.18;;
73550;SDS011;61816;53.582;10.096;2022-07-22T05:56:29;21.00;;;6.22;;
73550;SDS011;61816;53.582;10.096;2022-07-22T05:58:54;32.30;;;6.18;;
73550;SDS011;61816;53.582;10.096;2022-07-22T06:01:20;19.17;;;5.88;;
73550;SDS011;61816;53.582;10.096;2022-07-22T06:03:46;21.52;;;4.97;;
73550;SDS011;61816;53.582;10.096;2022-07-22T06:06:11;24.52;;;5.18;;
73550;SDS011;61816;53.582;10.096;2022-07-22T06:08:37;40.38;;;6.05;;
73550;SDS011;61816;53.582;10.096;2022-07-22T06:11:02;18.73;;;4.40;;
73550;SDS011;61816;53.582;10.096;2022-07-22T06:13:27;22.83;;;5.18;;
73550;SDS011;61816;53.582;10.096;2022-07-22T06:15:53;27.92;;;6.45;;
73550;SDS011;61816;53.582;10.096;2022-07-22T06:18:18;30.95;;;5.57;;
73550;SDS011;61816;53.582;10.096;2022-07-22T06:20:44;36.70;;;6.00;;
73550;SDS011;61816;53.582;10.096;2022-07-22T06:23:10;25.17;;;5.93;;
73550;SDS011;61816;53.582;10.096;2022-07-22T06:25:35;20.30;;;4.43;;
73550;SDS011;61816;53.582;10.096;2022-07-22T06:28:01;32.78;;;5.95;;
73550;SDS011;61816;53.582;10.096;2022-07-22T06:30:26;23.50;;;5.57;;
73550;SDS011;61816;53.582;10.096;2022-07-22T06:32:52;26.05;;;5.85;;
73550;SDS011;61816;53.582;10.096;2022-07-22T06:35:18;21.58;;;4.97;;
73550;SDS011;61816;53.582;10.096;2022-07-22T06:37:43;27.42;;;6.60;;
73550;SDS011;61816;53.582;10.096;2022-07-22T06:40:09;26.65;;;5.68;;
73550;SDS011;61816;53.582;10.096;2022-07-22T06:42:35;21.35;;;5.63;;
73550;SDS011;61816;53.582;10.096;2022-07-22T06:45:00;21.90;;;6.15;;
73550;SDS011;61816;53.582;10.096;2022-07-22T06:47:25;25.17;;;5.18;;
73550;SDS011;61816;53.582;10.096;2022-07-22T06:49:51;28.27;;;5.97;;
73550;SDS011;61816;53.582;10.096;2022-07-22T06:52:16;26.30;;;5.43;;
73550;SDS011;61816;53.582;10.096;2022-07-22T06:54:41;26.30;;;6.15;;
73550;SDS011;61816;53.582;10.096;2022-07-22T06:57:07;33.35;;;6.35;;
73550;SDS011;61816;53.582;10.096;2022-07-22T06:59:32;34.13;;;5.72;;
73550;SDS011;61816;53.582;10.096;2022-07-22T07:01:58;23.58;;;5.65;;
73550;SDS011;61816;53.582;10.096;2022-07-22T07:04:23;21.85;;;5.07;;
73550;SDS011;61816;53.582;10.096;2022-07-22T07:06:49;27.85;;;5.68;;
73550;SDS011;61816;53.582;10.096;2022-07-22T07:09:14;24.10;;;4.65;;
73550;SDS011;61816;53.582;10.096;2022-07-22T07:11:39;22.98;;;5.68;;
73550;SDS011;61816;53.582;10.096;2022-07-22T07:14:05;25.27;;;5.70;;
73550;SDS011;61816;53.582;10.096;2022-07-22T07:16:31;28.67;;;5.57;;
73550;SDS011;61816;53.582;10.096;2022-07-22T07:18:57;24.55;;;6.03;;
73550;SDS011;61816;53.582;10.096;2022-07-22T07:21:22;30.20;;;5.63;;
73550;SDS011;61816;53.582;10.096;2022-07-22T07:23:47;25.40;;;5.00;;
73550;SDS011;61816;53.582;10.096;2022-07-22T07:26:13;33.05;;;6.40;;
73550;SDS011;61816;53.582;10.096;2022-07-22T07:28:39;19.08;;;4.65;;
73550;SDS011;61816;53.582;10.096;2022-07-22T07:31:04;28.73;;;5.90;;
73550;SDS011;61816;53.582;10.096;2022-07-22T07:33:30;29.33;;;4.05;;
73550;SDS011;61816;53.582;10.096;2022-07-22T07:35:55;25.83;;;5.15;;
73550;SDS011;61816;53.582;10.096;2022-07-22T07:38:22;28.08;;;5.97;;
73550;SDS011;61816;53.582;10.096;2022-07-22T07:40:48;21.10;;;4.22;;
73550;SDS011;61816;53.582;10.096;2022-07-22T07:43:14;29.17;;;4.80;;
73550;SDS011;61816;53.582;10.096;2022-07-22T07:45:39;25.25;;;4.93;;
73550;SDS011;61816;53.582;10.096;2022-07-22T07:48:05;33.45;;;5.75;;
73550;SDS011;61816;53.582;10.096;2022-07-22T07:50:31;29.95;;;5.43;;
73550;SDS011;61816;53.582;10.096;2022-07-22T07:52:57;26.38;;;4.55;;
73550;SDS011;61816;53.582;10.096;2022-07-22T07:55:23;22.17;;;4.50;;
73550;SDS011;61816;53.582;10.096;2022-07-22T07:57:49;30.95;;;5.18;;
73550;SDS011;61816;53.582;10.096;2022-07-22T08:00:17;20.55;;;4.40;;
73550;SDS011;61816;53.582;10.096;2022-07-22T08:02:47;19.27;;;4.75;;
73550;SDS011;61816;53.582;10.096;2022-07-22T08:05:13;30.33;;;4.53;;
73550;SDS011;61816;53.582;10.096;2022-07-22T08:07:39;24.20;;;4.72;;
73550;SDS011;61816;53.582;10.096;2022-07-22T08:10:05;28.77;;;4.18;;
73550;SDS011;61816;53.582;10.096;2022-07-22T08:12:32;31.70;;;4.85;;
73550;SDS011;61816;53.582;10.096;2022-07-22T08:14:58;23.58;;;4.40;;
73550;SDS011;61816;53.582;10.096;2022-07-22T08:17:23;26.50;;;4.10;;
73550;SDS011;61816;53.582;10.096;2022-07-22T08:19:49;21.15;;;4.30;;
73550;SDS011;61816;53.582;10.096;2022-07-22T08:22:14;19.48;;;5.25;;
73550;SDS011;61816;53.582;10.096;2022-07-22T08:24:39;17.70;;;4.40;;
73550;SDS011;61816;53.582;10.096;2022-07-22T08:27:05;24.67;;;5.00;;
73550;SDS011;61816;53.582;10.096;2022-07-22T08:29:30;17.83;;;4.22;;
73550;SDS011;61816;53.582;10.096;2022-07-22T08:31:56;25.52;;;4.18;;
73550;SDS011;61816;53.582;10.096;2022-07-22T08:34:21;27.45;;;4.57;;
73550;SDS011;61816;53.582;10.096;2022-07-22T08:36:46;20.40;;;3.65;;
73550;SDS011;61816;53.582;10.096;2022-07-22T08:39:12;24.80;;;3.85;;
73550;SDS011;61816;53.582;10.096;2022-07-22T08:41:38;20.73;;;3.70;;
73550;SDS011;61816;53.582;10.096;2022-07-22T08:44:05;30.13;;;4.38;;
73550;SDS011;61816;53.582;10.096;2022-07-22T08:46:32;20.02;;;3.58;;
73550;SDS011;61816;53.582;10.096;2022-07-22T08:48:58;21.70;;;3.45;;
73550;SDS011;61816;53.582;10.096;2022-07-22T08:51:27;17.60;;;3.03;;
73550;SDS011;61816;53.582;10.096;2022-07-22T08:53:54;24.05;;;3.22;;
73550;SDS011;61816;53.582;10.096;2022-07-22T08:56:21;15.18;;;3.10;;
73550;SDS011;61816;53.582;10.096;2022-07-22T08:58:46;14.88;;;3.05;;
73550;SDS011;61816;53.582;10.096;2022-07-22T09:01:13;14.30;;;3.20;;
73550;SDS011;61816;53.582;10.096;2022-07-22T09:03:47;21.10;;;3.63;;
73550;SDS011;61816;53.582;10.096;2022-07-22T09:06:21;15.25;;;3.00;;
73550;SDS011;61816;53.582;10.096;2022-07-22T09:11:21;17.83;;;3.38;;
73550;SDS011;61816;53.582;10.096;2022-07-22T09:13:49;16.13;;;3.55;;
73550;SDS011;61816;53.582;10.096;2022-07-22T09:16:15;29.05;;;3.67;;
73550;SDS011;61816;53.582;10.096;2022-07-22T09:18:51;18.13;;;3.40;;
73550;SDS011;61816;53.582;10.096;2022-07-22T09:21:19;22.15;;;3.50;;
73550;SDS011;61816;53.582;10.096;2022-07-22T09:23:45;12.73;;;2.92;;
73550;SDS011;61816;53.582;10.096;2022-07-22T09:26:32;20.48;;;4.13;;
73550;SDS011;61816;53.582;10.096;2022-07-22T09:28:59;16.95;;;2.72;;
73550;SDS011;61816;53.582;10.096;2022-07-22T09:31:29;18.25;;;3.60;;
73550;SDS011;61816;53.582;10.096;2022-07-22T09:36:22;14.85;;;3.05;;
73550;SDS011;61816;53.582;10.096;2022-07-22T09:38:48;20.58;;;3.22;;
73550;SDS011;61816;53.582;10.096;2022-07-22T09:41:14;15.82;;;3.33;;
73550;SDS011;61816;53.582;10.096;2022-07-22T09:43:39;18.65;;;3.40;;
73550;SDS011;61816;53.582;10.096;2022-07-22T09:46:05;18.35;;;2.95;;
73550;SDS011;61816;53.582;10.096;2022-07-22T09:48:31;22.67;;;3.33;;
73550;SDS011;61816;53.582;10.096;2022-07-22T09:50:58;19.65;;;4.07;;
73550;SDS011;61816;53.582;10.096;2022-07-22T09:53:25;21.13;;;3.13;;
73550;SDS011;61816;53.582;10.096;2022-07-22T09:55:59;15.55;;;2.97;;
73550;SDS011;61816;53.582;10.096;2022-07-22T09:58:26;11.35;;;2.88;;
73550;SDS011;61816;53.582;10.096;2022-07-22T10:00:52;12.98;;;2.60;;
73550;SDS011;61816;53.582;10.096;2022-07-22T10:03:26;18.63;;;3.08;;
73550;SDS011;61816;53.582;10.096;2022-07-22T10:05:54;18.60;;;2.92;;
73550;SDS011;61816;53.582;10.096;2022-07-22T10:08:21;15.30;;;3.28;;
73550;SDS011;61816;53.582;10.096;2022-07-22T10:10:48;16.42;;;2.55;;
73550;SDS011;61816;53.582;10.096;2022-07-22T10:13:14;15.52;;;2.60;;
73550;SDS011;61816;53.582;10.096;2022-07-22T10:15:43;10.98;;;2.50;;
73550;SDS011;61816;53.582;10.096;2022-07-22T10:18:14;16.92;;;3.47;;
73550;SDS011;61816;53.582;10.096;2022-07-22T10:20:41;14.20;;;2.92;;
73550;SDS011;61816;53.582;10.096;2022-07-22T10:23:07;13.15;;;2.58;;
73550;SDS011;61816;53.582;10.096;2022-07-22T10:28:34;11.20;;;2.58;;
73550;SDS011;61816;53.582;10.096;2022-07-22T10:31:20;12.20;;;2.75;;
73550;SDS011;61816;53.582;10.096;2022-07-22T10:33:50;12.07;;;3.03;;
73550;SDS011;61816;53.582;10.096;2022-07-22T10:39:02;20.23;;;3.10;;
73550;SDS011;61816;53.582;10.096;2022-07-22T10:41:43;18.27;;;3.65;;
73550;SDS011;61816;53.582;10.096;2022-07-22T10:44:10;16.73;;;2.90;;
73550;SDS011;61816;53.582;10.096;2022-07-22T10:46:50;18.17;;;3.20;;
73550;SDS011;61816;53.582;10.096;2022-07-22T10:49:18;12.32;;;2.67;;
73550;SDS011;61816;53.582;10.096;2022-07-22T10:57:40;19.60;;;3.22;;
73550;SDS011;61816;53.582;10.096;2022-07-22T11:00:05;15.52;;;3.50;;
73550;SDS011;61816;53.582;10.096;2022-07-22T11:02:33;17.98;;;2.95;;
73550;SDS011;61816;53.582;10.096;2022-07-22T11:05:00;14.02;;;3.33;;
73550;SDS011;61816;53.582;10.096;2022-07-22T11:07:27;13.75;;;2.63;;
73550;SDS011;61816;53.582;10.096;2022-07-22T11:09:55;14.75;;;2.90;;
73550;SDS011;61816;53.582;10.096;2022-07-22T11:12:37;19.17;;;4.10;;
73550;SDS011;61816;53.582;10.096;2022-07-22T11:15:03;14.82;;;2.75;;
73550;SDS011;61816;53.582;10.096;2022-07-22T11:17:31;15.18;;;2.67;;
73550;SDS011;61816;53.582;10.096;2022-07-22T11:19:59;13.32;;;2.30;;
73550;SDS011;61816;53.582;10.096;2022-07-22T11:22:25;15.85;;;2.53;;
73550;SDS011;61816;53.582;10.096;2022-07-22T11:24:52;8.95;;;2.38;;
73550;SDS011;61816;53.582;10.096;2022-07-22T11:27:18;17.52;;;2.40;;
73550;SDS011;61816;53.582;10.096;2022-07-22T11:29:47;14.05;;;2.10;;
73550;SDS011;61816;53.582;10.096;2022-07-22T11:32:14;23.63;;;3.95;;
73550;SDS011;61816;53.582;10.096;2022-07-22T11:34:41;15.93;;;2.50;;
73550;SDS011;61816;53.582;10.096;2022-07-22T11:37:10;17.85;;;3.58;;
73550;SDS011;61816;53.582;10.096;2022-07-22T11:39:36;15.20;;;2.20;;
73550;SDS011;61816;53.582;10.096;2022-07-22T11:42:01;14.60;;;2.72;;
73550;SDS011;61816;53.582;10.096;2022-07-22T11:44:28;18.70;;;3.08;;
73550;SDS011;61816;53.582;10.096;2022-07-22T11:46:56;19.08;;;2.53;;
73550;SDS011;61816;53.582;10.096;2022-07-22T11:49:23;16.15;;;2.70;;
73550;SDS011;61816;53.582;10.096;2022-07-22T11:51:50;18.27;;;2.75;;
73550;SDS011;61816;53.582;10.096;2022-07-22T11:54:16;14.88;;;2.50;;
73550;SDS011;61816;53.582;10.096;2022-07-22T11:56:42;13.70;;;2.58;;
73550;SDS011;61816;53.582;10.096;2022-07-22T11:59:13;13.27;;;2.60;;
73550;SDS011;61816;53.582;10.096;2022-07-22T12:01:40;12.00;;;2.88;;
73550;SDS011;61816;53.582;10.096;2022-07-22T12:04:19;17.23;;;2.65;;
73550;SDS011;61816;53.582;10.096;2022-07-22T12:06:47;11.48;;;2.33;;
73550;SDS011;61816;53.582;10.096;2022-07-22T12:09:19;13.43;;;2.25;;
73550;SDS011;61816;53.582;10.096;2022-07-22T12:11:48;10.13;;;2.15;;
73550;SDS011;61816;53.582;10.096;2022-07-22T12:14:25;17.48;;;2.75;;
73550;SDS011;61816;53.582;10.096;2022-07-22T12:16:55;20.20;;;2.88;;
73550;SDS011;61816;53.582;10.096;2022-07-22T12:19:22;10.75;;;2.63;;
73550;SDS011;61816;53.582;10.096;2022-07-22T12:21:57;13.90;;;2.78;;
73550;SDS011;61816;53.582;10.096;2022-07-22T12:24:33;10.02;;;2.50;;
73550;SDS011;61816;53.582;10.096;2022-07-22T12:27:06;12.00;;;2.55;;
73550;SDS011;61816;53.582;10.096;2022-07-22T12:32:05;9.43;;;2.15;;
73550;SDS011;61816;53.582;10.096;2022-07-22T12:34:39;14.23;;;2.67;;
73550;SDS011;61816;53.582;10.096;2022-07-22T12:37:20;14.57;;;2.15;;
73550;SDS011;61816;53.582;10.096;2022-07-22T12:42:32;12.98;;;2.45;;
73550;SDS011;61816;53.582;10.096;2022-07-22T12:45:17;8.00;;;1.92;;
73550;SDS011;61816;53.582;10.096;2022-07-22T12:47:51;10.85;;;2.08;;
73550;SDS011;61816;53.582;10.096;2022-07-22T12:53:05;13.10;;;2.38;;
73550;SDS011;61816;53.582;10.096;2022-07-22T12:55:32;12.90;;;2.28;;
73550;SDS011;61816;53.582;10.096;2022-07-22T12:57:59;7.57;;;2.13;;
73550;SDS011;61816;53.582;10.096;2022-07-22T13:00:29;11.38;;;2.20;;
73550;SDS011;61816;53.582;10.096;2022-07-22T13:02:55;10.10;;;2.50;;
73550;SDS011;61816;53.582;10.096;2022-07-22T13:05:21;9.57;;;2.08;;
73550;SDS011;61816;53.582;10.096;2022-07-22T13:07:48;8.05;;;1.83;;
73550;SDS011;61816;53.582;10.096;2022-07-22T13:10:14;14.20;;;2.38;;
73550;SDS011;61816;53.582;10.096;2022-07-22T13:12:40;6.28;;;1.83;;
73550;SDS011;61816;53.582;10.096;2022-07-22T13:15:07;10.25;;;2.05;;
73550;SDS011;61816;53.582;10.096;2022-07-22T13:17:33;7.72;;;1.83;;
73550;SDS011;61816;53.582;10.096;2022-07-22T13:19:59;9.32;;;2.15;;
73550;SDS011;61816;53.582;10.096;2022-07-22T13:22:24;6.55;;;1.73;;
73550;SDS011;61816;53.582;10.096;2022-07-22T13:24:50;11.55;;;2.03;;
73550;SDS011;61816;53.582;10.096;2022-07-22T13:27:15;10.25;;;2.90;;
73550;SDS011;61816;53.582;10.096;2022-07-22T13:29:41;34.50;;;3.47;;
73550;SDS011;61816;53.582;10.096;2022-07-22T13:32:07;9.77;;;2.00;;
73550;SDS011;61816;53.582;10.096;2022-07-22T13:34:32;8.35;;;1.98;;
73550;SDS011;61816;53.582;10.096;2022-07-22T13:36:57;11.07;;;2.35;;
73550;SDS011;61816;53.582;10.096;2022-07-22T13:39:23;10.07;;;1.95;;
73550;SDS011;61816;53.582;10.096;2022-07-22T13:41:49;9.00;;;1.77;;
73550;SDS011;61816;53.582;10.096;2022-07-22T13:44:14;9.40;;;2.00;;
73550;SDS011;61816;53.582;10.096;2022-07-22T13:46:40;15.55;;;2.03;;
73550;SDS011;61816;53.582;10.096;2022-07-22T13:49:05;13.45;;;2.40;;
73550;SDS011;61816;53.582;10.096;2022-07-22T13:51:34;10.52;;;2.20;;
73550;SDS011;61816;53.582;10.096;2022-07-22T13:53:59;7.20;;;1.95;;
73550;SDS011;61816;53.582;10.096;2022-07-22T13:56:25;16.15;;;2.10;;
73550;SDS011;61816;53.582;10.096;2022-07-22T13:58:51;7.20;;;1.70;;
73550;SDS011;61816;53.582;10.096;2022-07-22T14:01:16;12.88;;;2.08;;
73550;SDS011;61816;53.582;10.096;2022-07-22T14:03:42;8.60;;;2.00;;
73550;SDS011;61816;53.582;10.096;2022-07-22T14:06:07;16.25;;;2.22;;
73550;SDS011;61816;53.582;10.096;2022-07-22T14:08:39;11.63;;;2.38;;
73550;SDS011;61816;53.582;10.096;2022-07-22T14:11:04;11.02;;;1.75;;
73550;SDS011;61816;53.582;10.096;2022-07-22T14:13:30;7.90;;;2.22;;
73550;SDS011;61816;53.582;10.096;2022-07-22T14:15:55;8.48;;;1.92;;
73550;SDS011;61816;53.582;10.096;2022-07-22T14:18:20;12.15;;;2.45;;
73550;SDS011;61816;53.582;10.096;2022-07-22T14:20:46;12.60;;;2.03;;
73550;SDS011;61816;53.582;10.096;2022-07-22T14:23:12;11.07;;;2.38;;
73550;SDS011;61816;53.582;10.096;2022-07-22T14:25:38;13.35;;;2.20;;
73550;SDS011;61816;53.582;10.096;2022-07-22T14:28:05;18.38;;;2.30;;
73550;SDS011;61816;53.582;10.096;2022-07-22T14:30:31;10.50;;;2.08;;
73550;SDS011;61816;53.582;10.096;2022-07-22T14:32:57;11.45;;;2.50;;
73550;SDS011;61816;53.582;10.096;2022-07-22T14:35:23;9.82;;;2.00;;
73550;SDS011;61816;53.582;10.096;2022-07-22T14:37:49;16.23;;;2.28;;
73550;SDS011;61816;53.582;10.096;2022-07-22T14:40:14;13.93;;;2.40;;
73550;SDS011;61816;53.582;10.096;2022-07-22T14:42:40;12.25;;;2.35;;